Terminal Aerodrome Forecast
Issued by NWS Blacksburg, VA

Home | Current Version | Previous Version | Text Only | Print | Product List | Glossary On
Versions: 1 2 3 4 5 6 7 8 9 10 11 12 13 14
000
FTUS41 KRNK 241727
TAFLYH
TAF
KLYH 241727Z 2418/2518 VRB06KT P6SM FEW080
     FM242200 02006KT P6SM BKN060
     FM250200 03008KT 6SM BR OVC015=

USA.gov is the U.S. government's official web portal to all federal, state and local government web resources and services.